Terminal Aerodrome Forecast
Issued by NWS

Home | Current Version | Previous Version | Graphics & Text | Print | Product List | Glossary On
Versions: 1 2 3 4 5 6 7 8 9 10 11 12 13 14 15 16 17 18 19 20 21 22
814
FTUS43 KGRB 152321
TAFMTW
TAF
KMTW 152321Z 1600/1624 28005KT P6SM FEW025 BKN090
      TEMPO 1601/1605 BKN025
     FM160500 03004KT P6SM SCT020 OVC040
     FM161000 05008KT 4SM -SN SCT018 OVC035
     FM161400 05009KT 1 1/2SM -SN OVC015
     FM161700 05009KT 6SM -SN OVC015
     FM162000 07008KT P6SM OVC015
     FM162300 08007KT P6SM OVC020=

USA.gov is the U.S. government's official web portal to all federal, state and local government web resources and services.